Time;durP1;ratioP1;P1;durP2;ratioP2;P2;SDS_P1;SDS_P2;PMS_P1;PMS_P2;Temp;Humidity;BMP_temperature;BMP_pressure;BME280_temperature;BME280_humidity;BME280_pressure;Samples;Min_cycle;Max_cycle;Signal;HPM_P1;HPM_P2
2023/04/23 00:01:50;;;;;;;;;;;;;;;13.80;100.00;95070.69;10565718;28;2734;-73
2023/04/23 00:06:53;;;;;;;;;;;;;;;13.84;100.00;95071.66;10565644;28;2551;-72
2023/04/23 00:11:56;;;;;;;;;;;;;;;13.84;100.00;95060.88;10557782;28;2042;-72
2023/04/23 00:17:00;;;;;;;;;;;;;;;13.84;100.00;95060.88;10560162;28;2671;-73
2023/04/23 00:22:02;;;;;;;;;;;;;;;13.78;100.00;95059.41;10563208;28;2669;-70
2023/04/23 00:27:05;;;;;;;;;;;;;;;13.79;100.00;95053.69;10568187;27;2635;-73
2023/04/23 00:32:13;;;;;;;;;;;;;;;13.71;100.00;95048.25;10563111;27;2060;-71
2023/04/23 00:37:16;;;;;;;;;;;;;;;13.82;100.00;95046.09;10575066;27;2598;-72
2023/04/23 00:42:20;;;;;;;;;;;;;;;13.75;100.00;95039.22;10552661;28;2613;-73
2023/04/23 00:47:24;;;;;;;;;;;;;;;13.76;100.00;95040.03;10566277;28;2505;-74
2023/04/23 00:52:27;;;;;;;;;;;;;;;13.69;100.00;95037.75;10565259;28;1929;-72
2023/04/23 00:57:31;;;;;;;;;;;;;;;13.72;100.00;95036.34;10566951;28;1959;-74
2023/04/23 01:02:35;;;;;;;;;;;;;;;13.69;100.00;95037.75;10569329;28;2626;-73
2023/04/23 01:07:38;;;;;;;;;;;;;;;13.68;100.00;95029.97;10563026;27;2624;-76
2023/04/23 01:12:40;;;;;;;;;;;;;;;13.61;100.00;95030.41;10563003;28;1969;-70
2023/04/23 01:17:43;;;;;;;;;;;;;;;13.57;100.00;95034.06;10566056;27;2004;-73
2023/04/23 01:22:46;;;;;;;;;;;;;;;13.60;100.00;95039.63;10564607;28;2599;-74
2023/04/23 01:28:06;;;;;;;;;;;;;;;13.59;100.00;95031.81;10559896;28;2602;-74
2023/04/23 01:33:09;;;;;;;;;;;;;;;13.63;100.00;95025.50;10562049;28;2662;-71
2023/04/23 01:38:13;;;;;;;;;;;;;;;13.56;100.00;95024.38;10560261;28;2662;-72
2023/04/23 01:43:15;;;;;;;;;;;;;;;13.51;100.00;95026.06;10551290;28;2684;-73
2023/04/23 01:48:18;;;;;;;;;;;;;;;13.56;100.00;95025.16;10563385;28;2024;-75
2023/04/23 01:53:21;;;;;;;;;;;;;;;13.42;100.00;95027.94;10567408;27;2642;-74
2023/04/23 01:58:24;;;;;;;;;;;;;;;13.42;100.00;95025.25;10565626;28;2562;-74
2023/04/23 02:03:26;;;;;;;;;;;;;;;13.40;100.00;95032.84;10544371;28;2569;-72
2023/04/23 02:08:30;;;;;;;;;;;;;;;13.35;100.00;95043.75;10566508;28;2005;-72
2023/04/23 02:13:32;;;;;;;;;;;;;;;13.24;100.00;95048.63;10564322;28;2682;-75
2023/04/23 02:18:35;;;;;;;;;;;;;;;13.11;100.00;95048.69;10565364;28;2604;-72
2023/04/23 02:23:37;;;;;;;;;;;;;;;13.01;100.00;95046.22;10563023;28;2632;-73
2023/04/23 02:28:40;;;;;;;;;;;;;;;12.98;100.00;95045.72;10567290;28;2773;-72
2023/04/23 02:33:43;;;;;;;;;;;;;;;12.91;100.00;95044.53;10571296;27;2641;-75
2023/04/23 02:38:48;;;;;;;;;;;;;;;12.84;100.00;95042.25;10561054;28;2641;-74
2023/04/23 02:43:51;;;;;;;;;;;;;;;12.83;100.00;95051.47;10567015;28;2180;-70
2023/04/23 02:48:54;;;;;;;;;;;;;;;12.81;100.00;95055.56;10565212;27;2718;-72
2023/04/23 02:53:58;;;;;;;;;;;;;;;12.77;100.00;95057.28;10568048;27;1937;-71
2023/04/23 02:59:00;;;;;;;;;;;;;;;12.76;100.00;95059.19;10546954;28;2719;-71
2023/04/23 03:04:03;;;;;;;;;;;;;;;12.75;100.00;95051.41;10571502;28;2598;-72
2023/04/23 03:09:06;;;;;;;;;;;;;;;12.77;100.00;95059.97;10546525;28;2664;-70
2023/04/23 03:14:10;;;;;;;;;;;;;;;12.77;100.00;95055.38;10555427;28;2597;-72
2023/04/23 03:19:12;;;;;;;;;;;;;;;12.75;100.00;95057.59;10556945;28;2611;-71
2023/04/23 03:24:16;;;;;;;;;;;;;;;12.73;100.00;95065.19;10563956;28;2596;-73
2023/04/23 03:29:19;;;;;;;;;;;;;;;12.68;100.00;95065.31;10557527;28;3000;-72
2023/04/23 03:34:22;;;;;;;;;;;;;;;12.74;100.00;95066.78;10541238;28;2136;-72
2023/04/23 03:39:25;;;;;;;;;;;;;;;12.75;100.00;95062.19;10558103;28;2559;-74
2023/04/23 03:44:30;;;;;;;;;;;;;;;12.84;100.00;95063.03;10555166;28;1985;-74
2023/04/23 03:49:33;;;;;;;;;;;;;;;12.83;100.00;95073.03;10560808;28;2289;-73
2023/04/23 03:54:36;;;;;;;;;;;;;;;12.80;100.00;95075.56;10564505;28;2598;-72
2023/04/23 03:59:38;;;;;;;;;;;;;;;12.76;100.00;95079.97;10565360;28;2599;-70
2023/04/23 04:04:44;;;;;;;;;;;;;;;12.79;100.00;95085.56;10562731;28;2550;-71
2023/04/23 04:09:48;;;;;;;;;;;;;;;12.87;100.00;95095.63;10566101;27;1984;-72
2023/04/23 04:14:51;;;;;;;;;;;;;;;12.88;100.00;95096.41;10564972;28;2704;-72
2023/04/23 04:19:54;;;;;;;;;;;;;;;12.82;100.00;95094.94;10567450;28;2575;-72
2023/04/23 04:24:56;;;;;;;;;;;;;;;12.59;100.00;95097.56;10563045;27;2607;-74
2023/04/23 04:30:00;;;;;;;;;;;;;;;12.37;100.00;95106.38;10566508;28;2556;-73
2023/04/23 04:35:04;;;;;;;;;;;;;;;11.99;100.00;95115.75;10552009;27;2604;-75
2023/04/23 04:40:07;;;;;;;;;;;;;;;11.80;100.00;95118.50;10570537;28;2617;-75
2023/04/23 04:45:09;;;;;;;;;;;;;;;11.68;100.00;95132.44;10566285;28;2270;-73
2023/04/23 04:50:11;;;;;;;;;;;;;;;11.53;100.00;95141.56;10562543;28;2576;-72
2023/04/23 04:55:14;;;;;;;;;;;;;;;11.42;100.00;95144.72;10562310;28;2486;-72
2023/04/23 05:00:16;;;;;;;;;;;;;;;11.36;100.00;95169.03;10567893;28;2592;-72
2023/04/23 05:05:19;;;;;;;;;;;;;;;11.34;100.00;95168.53;10563541;27;2709;-73
2023/04/23 05:10:25;;;;;;;;;;;;;;;11.33;100.00;95168.81;10568989;27;1970;-73
2023/04/23 05:15:28;;;;;;;;;;;;;;;11.42;100.00;95183.19;10569243;28;2566;-73
2023/04/23 05:20:30;;;;;;;;;;;;;;;11.44;100.00;95185.59;10570017;28;2611;-72
2023/04/23 05:25:33;;;;;;;;;;;;;;;11.41;100.00;95175.44;10563069;27;2949;-72
2023/04/23 05:30:36;;;;;;;;;;;;;;;11.44;100.00;95185.59;10566156;27;2087;-71
2023/04/23 05:35:39;;;;;;;;;;;;;;;11.53;100.00;95194.63;10561463;27;2599;-72
2023/04/23 05:40:42;;;;;;;;;;;;;;;11.54;100.00;95201.59;10567510;27;1972;-72
2023/04/23 05:45:44;;;;;;;;;;;;;;;11.53;100.00;95200.00;10562825;27;2586;-72
2023/04/23 05:50:48;;;;;;;;;;;;;;;11.59;100.00;95205.00;10573325;27;1996;-71
2023/04/23 05:55:50;;;;;;;;;;;;;;;11.51;100.00;95200.28;10569200;28;2628;-72
2023/04/23 06:00:56;;;;;;;;;;;;;;;11.56;100.00;95210.97;10567225;27;2691;-73
2023/04/23 06:05:59;;;;;;;;;;;;;;;11.57;100.00;95214.44;10561223;28;2568;-72
2023/04/23 06:11:02;;;;;;;;;;;;;;;11.28;100.00;95215.44;10567751;28;1987;-72
2023/04/23 06:16:04;;;;;;;;;;;;;;;11.26;100.00;95217.63;10569344;27;2614;-73
2023/04/23 06:21:07;;;;;;;;;;;;;;;11.16;100.00;95217.75;10575158;28;2039;-73
2023/04/23 06:26:09;;;;;;;;;;;;;;;11.08;100.00;95226.47;10560903;28;2568;-70
2023/04/23 06:31:12;;;;;;;;;;;;;;;10.97;100.00;95233.06;10569911;27;1961;-72
2023/04/23 06:36:15;;;;;;;;;;;;;;;11.10;100.00;95238.53;10564108;27;2579;-71
2023/04/23 06:41:19;;;;;;;;;;;;;;;11.10;100.00;95240.44;10564898;27;2770;-73
2023/04/23 06:46:22;;;;;;;;;;;;;;;10.98;100.00;95248.91;10568128;27;2623;-73
2023/04/23 06:51:25;;;;;;;;;;;;;;;11.01;100.00;95239.50;10566147;28;2532;-74
2023/04/23 06:56:27;;;;;;;;;;;;;;;11.08;100.00;95237.25;10561523;28;2830;-78
2023/04/23 07:01:30;;;;;;;;;;;;;;;11.00;100.00;95229.78;10564541;28;2635;-71
2023/04/23 07:06:33;;;;;;;;;;;;;;;10.97;100.00;95231.19;10561067;28;2550;-74
2023/04/23 07:11:35;;;;;;;;;;;;;;;11.11;100.00;95228.56;10563448;28;2583;-74
2023/04/23 07:16:38;;;;;;;;;;;;;;;11.17;100.00;95216.66;10570617;28;2988;-74
2023/04/23 07:21:40;;;;;;;;;;;;;;;11.42;100.00;95220.06;10564233;28;2564;-75
2023/04/23 07:26:43;;;;;;;;;;;;;;;11.61;100.00;95221.66;10565538;28;2634;-73
2023/04/23 07:31:47;;;;;;;;;;;;;;;11.70;100.00;95220.97;10568965;27;2862;-76
2023/04/23 07:36:50;;;;;;;;;;;;;;;11.77;100.00;95219.53;10568934;27;1949;-75
2023/04/23 07:41:53;;;;;;;;;;;;;;;11.97;100.00;95220.31;10573265;28;1940;-74
2023/04/23 07:46:55;;;;;;;;;;;;;;;11.87;100.00;95216.69;10574355;27;2645;-74
2023/04/23 07:51:58;;;;;;;;;;;;;;;11.92;100.00;95217.72;10575081;27;1965;-75
2023/04/23 07:57:01;;;;;;;;;;;;;;;11.89;100.00;95219.88;10574061;28;2552;-73
2023/04/23 08:02:04;;;;;;;;;;;;;;;11.82;100.00;95214.06;10571644;28;1937;-72
2023/04/23 08:07:06;;;;;;;;;;;;;;;11.85;100.00;95221.56;10570493;28;2571;-72
2023/04/23 08:12:09;;;;;;;;;;;;;;;12.10;100.00;95224.94;10569429;28;2624;-71
2023/04/23 08:17:13;;;;;;;;;;;;;;;12.02;100.00;95217.50;10572215;27;2610;-72
2023/04/23 08:22:16;;;;;;;;;;;;;;;12.25;100.00;95200.41;10570596;27;1958;-73
2023/04/23 08:27:19;;;;;;;;;;;;;;;12.44;100.00;95193.03;10571142;27;1956;-73
2023/04/23 08:32:21;;;;;;;;;;;;;;;12.89;100.00;95198.59;10568546;27;2583;-73
2023/04/23 08:37:25;;;;;;;;;;;;;;;13.82;100.00;95176.53;10543316;28;2973;-72
2023/04/23 08:42:32;;;;;;;;;;;;;;;15.33;100.00;95155.56;10569715;28;1915;-75
2023/04/23 08:47:35;;;;;;;;;;;;;;;15.38;100.00;95142.66;10588662;27;2731;-71
2023/04/23 08:52:38;;;;;;;;;;;;;;;16.02;100.00;95143.88;10564023;28;2752;-72
2023/04/23 08:57:40;;;;;;;;;;;;;;;15.91;100.00;95138.03;10564567;28;2667;-72
2023/04/23 09:02:46;;;;;;;;;;;;;;;16.13;100.00;95132.38;10572148;27;2561;-72
2023/04/23 09:07:48;;;;;;;;;;;;;;;16.80;100.00;95133.56;10570809;28;2561;-73
2023/04/23 09:12:51;;;;;;;;;;;;;;;17.16;100.00;95130.25;10568074;27;1925;-75
2023/04/23 09:17:53;;;;;;;;;;;;;;;17.23;100.00;95127.00;10565242;28;2608;-76
2023/04/23 09:22:58;;;;;;;;;;;;;;;17.09;100.00;95116.41;10567996;28;2732;-75
2023/04/23 09:28:00;;;;;;;;;;;;;;;16.89;100.00;95117.19;10565278;27;2091;-71
2023/04/23 09:33:03;;;;;;;;;;;;;;;17.12;100.00;95113.06;10568073;27;2112;-71
2023/04/23 09:38:06;;;;;;;;;;;;;;;17.27;100.00;95109.72;10568293;27;1913;-72
2023/04/23 09:43:09;;;;;;;;;;;;;;;17.78;100.00;95110.41;10547362;28;2637;-72
2023/04/23 09:48:11;;;;;;;;;;;;;;;17.49;100.00;95099.63;10566577;28;1923;-72
2023/04/23 09:53:15;;;;;;;;;;;;;;;17.37;100.00;95086.81;10571074;28;2580;-74
2023/04/23 09:58:18;;;;;;;;;;;;;;;17.51;100.00;95083.81;10566663;28;2750;-76
2023/04/23 10:03:22;;;;;;;;;;;;;;;17.61;100.00;95086.09;10566534;28;2614;-74
2023/04/23 10:08:25;;;;;;;;;;;;;;;16.87;100.00;95078.75;10562357;28;1996;-74
2023/04/23 10:13:27;;;;;;;;;;;;;;;16.83;100.00;95078.59;10569477;27;2011;-75
2023/04/23 10:18:32;;;;;;;;;;;;;;;17.34;100.00;95081.25;10544705;27;2610;-72
2023/04/23 10:23:34;;;;;;;;;;;;;;;17.65;100.00;95062.56;10560446;28;2722;-72
2023/04/23 10:28:36;;;;;;;;;;;;;;;17.76;100.00;95061.03;10565927;28;2564;-73
2023/04/23 10:33:39;;;;;;;;;;;;;;;17.61;100.00;95066.28;10566459;28;2605;-73
2023/04/23 10:39:03;;;;;;;;;;;;;;;17.54;100.00;95061.38;10556854;28;1980;-72
2023/04/23 10:44:06;;;;;;;;;;;;;;;17.02;100.00;95067.28;10563377;28;2509;-73
2023/04/23 10:49:09;;;;;;;;;;;;;;;17.68;100.00;95053.72;10555982;28;2797;-73
2023/04/23 10:54:12;;;;;;;;;;;;;;;17.15;100.00;95041.78;10565170;27;2579;-72
2023/04/23 10:59:15;;;;;;;;;;;;;;;17.72;100.00;95043.00;10556529;28;2893;-72
2023/04/23 11:04:18;;;;;;;;;;;;;;;18.00;100.00;95018.69;10548975;28;2619;-71
2023/04/23 11:09:21;;;;;;;;;;;;;;;17.94;100.00;95011.88;10557198;28;1973;-73
2023/04/23 11:14:23;;;;;;;;;;;;;;;17.44;100.00;95004.78;10562227;28;2676;-77
2023/04/23 11:19:26;;;;;;;;;;;;;;;16.81;100.00;95004.84;10564517;28;2566;-72
2023/04/23 11:24:28;;;;;;;;;;;;;;;16.94;100.00;94994.84;10559125;28;1950;-73
2023/04/23 11:29:30;;;;;;;;;;;;;;;16.96;100.00;94985.25;10563589;28;2578;-74
2023/04/23 11:34:33;;;;;;;;;;;;;;;17.12;100.00;94987.34;10562127;28;2614;-73
2023/04/23 11:39:36;;;;;;;;;;;;;;;18.19;100.00;94980.84;10555953;28;2651;-74
2023/04/23 11:44:38;;;;;;;;;;;;;;;18.06;100.00;94976.53;10564497;28;2064;-74
2023/04/23 11:49:53;;;;;;;;;;;;;;;17.98;100.00;94969.31;10566462;28;1972;-72
2023/04/23 11:54:56;;;;;;;;;;;;;;;18.78;100.00;94961.28;10553640;28;2596;-72
2023/04/23 11:59:59;;;;;;;;;;;;;;;19.70;94.22;94943.13;10565420;28;2783;-73
2023/04/23 12:05:01;;;;;;;;;;;;;;;18.84;100.00;94921.00;10562232;28;2592;-73
2023/04/23 12:10:04;;;;;;;;;;;;;;;18.77;100.00;94924.31;10561018;28;1949;-72
2023/04/23 12:15:08;;;;;;;;;;;;;;;18.17;100.00;94917.84;10562121;28;2646;-73
2023/04/23 12:20:12;;;;;;;;;;;;;;;17.09;100.00;94912.78;10561981;28;1955;-73
2023/04/23 12:25:15;;;;;;;;;;;;;;;16.70;100.00;94914.13;10571634;28;2603;-73
2023/04/23 12:30:18;;;;;;;;;;;;;;;17.45;100.00;94906.63;10569420;28;2023;-74
2023/04/23 12:35:22;;;;;;;;;;;;;;;17.86;100.00;94896.69;10564955;27;1909;-73
2023/04/23 12:40:27;;;;;;;;;;;;;;;17.98;100.00;94893.16;10567048;28;2527;-72
2023/04/23 12:45:35;;;;;;;;;;;;;;;18.03;100.00;94891.00;10564520;27;2733;-72
2023/04/23 12:50:38;;;;;;;;;;;;;;;18.13;100.00;94876.13;10568046;28;2650;-72
2023/04/23 12:55:44;;;;;;;;;;;;;;;18.33;100.00;94872.47;10565253;27;2087;-74
2023/04/23 13:00:47;;;;;;;;;;;;;;;18.13;100.00;94862.53;10555667;28;2614;-72
2023/04/23 13:05:50;;;;;;;;;;;;;;;18.19;100.00;94857.66;10567849;28;2712;-73
2023/04/23 13:10:52;;;;;;;;;;;;;;;18.17;100.00;94849.06;10565643;27;2532;-73
2023/04/23 13:15:55;;;;;;;;;;;;;;;18.19;100.00;94839.41;10545064;27;2091;-73
2023/04/23 13:20:58;;;;;;;;;;;;;;;18.21;100.00;94825.47;10543089;28;2546;-72
2023/04/23 13:26:02;;;;;;;;;;;;;;;18.46;100.00;94823.47;10579398;27;2595;-74
2023/04/23 13:31:05;;;;;;;;;;;;;;;18.49;100.00;94803.72;10566694;27;2604;-73
2023/04/23 13:36:07;;;;;;;;;;;;;;;18.71;100.00;94789.59;10559838;27;2101;-74
2023/04/23 13:41:10;;;;;;;;;;;;;;;18.31;100.00;94784.97;10565049;27;2489;-71
2023/04/23 13:46:13;;;;;;;;;;;;;;;18.36;100.00;94781.22;10562642;27;2103;-74
2023/04/23 13:51:16;;;;;;;;;;;;;;;18.37;100.00;94767.25;10566652;27;2939;-74
2023/04/23 13:56:35;;;;;;;;;;;;;;;18.17;100.00;94760.09;10562549;27;2580;-72
2023/04/23 14:01:38;;;;;;;;;;;;;;;18.09;100.00;94750.94;10566171;28;2606;-72
2023/04/23 14:06:41;;;;;;;;;;;;;;;18.34;100.00;94746.19;10564997;27;2763;-73
2023/04/23 14:11:44;;;;;;;;;;;;;;;18.72;100.00;94744.88;10566584;28;2672;-72
2023/04/23 14:16:46;;;;;;;;;;;;;;;18.73;100.00;94745.66;10564109;28;2513;-73
2023/04/23 14:21:48;;;;;;;;;;;;;;;18.44;100.00;94741.38;10568994;27;2606;-73
2023/04/23 14:26:51;;;;;;;;;;;;;;;18.55;100.00;94748.69;10562996;27;2578;-73
2023/04/23 14:31:53;;;;;;;;;;;;;;;19.16;100.00;94731.19;10562027;28;2005;-72
2023/04/23 14:36:57;;;;;;;;;;;;;;;18.40;100.00;94740.50;10562332;28;2616;-73
2023/04/23 14:42:00;;;;;;;;;;;;;;;18.44;100.00;94727.75;10563836;28;2676;-73
2023/04/23 14:47:05;;;;;;;;;;;;;;;18.00;100.00;94723.09;10560450;27;2703;-73
2023/04/23 14:52:08;;;;;;;;;;;;;;;18.50;100.00;94707.31;10550492;28;2289;-73
2023/04/23 14:57:12;;;;;;;;;;;;;;;18.77;100.00;94701.06;10564878;28;1910;-73
2023/04/23 15:02:14;;;;;;;;;;;;;;;18.62;100.00;94705.31;10566126;28;2048;-72
2023/04/23 15:07:17;;;;;;;;;;;;;;;18.29;100.00;94697.47;10557318;28;2556;-73
2023/04/23 15:12:20;;;;;;;;;;;;;;;18.03;100.00;94700.66;10564892;28;2625;-72
2023/04/23 15:17:23;;;;;;;;;;;;;;;17.95;100.00;94700.81;10557819;28;2595;-73
2023/04/23 15:22:26;;;;;;;;;;;;;;;17.90;100.00;94698.34;10562187;28;2603;-75
2023/04/23 15:27:28;;;;;;;;;;;;;;;18.11;100.00;94693.47;10576648;28;2916;-71
2023/04/23 15:32:31;;;;;;;;;;;;;;;18.22;100.00;94700.00;10561902;28;2693;-73
2023/04/23 15:37:34;;;;;;;;;;;;;;;18.86;100.00;94688.06;10560400;28;2579;-74
2023/04/23 15:42:39;;;;;;;;;;;;;;;18.57;100.00;94683.00;10566161;28;2628;-74
2023/04/23 15:47:42;;;;;;;;;;;;;;;18.36;100.00;94675.09;10562570;28;1969;-72
2023/04/23 15:52:45;;;;;;;;;;;;;;;18.03;100.00;94667.25;10567660;28;2689;-73
2023/04/23 15:57:50;;;;;;;;;;;;;;;17.42;100.00;94659.28;10568312;27;2056;-73
2023/04/23 16:02:53;;;;;;;;;;;;;;;17.17;100.00;94670.19;10570078;27;2537;-71
2023/04/23 16:07:56;;;;;;;;;;;;;;;16.88;100.00;94678.59;10561847;27;2580;-73
2023/04/23 16:12:59;;;;;;;;;;;;;;;16.50;100.00;94658.00;10568005;28;2601;-72
2023/04/23 16:18:03;;;;;;;;;;;;;;;16.37;100.00;94653.69;10571100;27;2584;-71
2023/04/23 16:23:06;;;;;;;;;;;;;;;16.34;100.00;94648.91;10549398;27;2514;-72
2023/04/23 16:28:09;;;;;;;;;;;;;;;16.42;100.00;94634.47;10569094;28;2622;-73
2023/04/23 16:33:11;;;;;;;;;;;;;;;16.13;100.00;94640.88;10569494;28;2619;-71
2023/04/23 16:38:15;;;;;;;;;;;;;;;16.43;100.00;94645.00;10577355;27;2607;-72
2023/04/23 16:43:17;;;;;;;;;;;;;;;16.23;100.00;94647.78;10580938;27;2610;-71
2023/04/23 16:48:20;;;;;;;;;;;;;;;15.89;100.00;94641.59;10571678;27;2635;-72
2023/04/23 16:53:23;;;;;;;;;;;;;;;15.97;100.00;94635.31;10576443;27;2578;-72
2023/04/23 16:58:25;;;;;;;;;;;;;;;15.88;100.00;94626.47;10580616;27;1913;-73
2023/04/23 17:03:32;;;;;;;;;;;;;;;15.66;100.00;94623.03;10570925;28;2625;-72
2023/04/23 17:08:36;;;;;;;;;;;;;;;15.58;100.00;94623.84;10559294;28;1818;-73
2023/04/23 17:13:42;;;;;;;;;;;;;;;15.59;100.00;94622.75;10577824;27;2632;-74
2023/04/23 17:18:45;;;;;;;;;;;;;;;15.42;100.00;94609.34;10576257;27;2584;-74
2023/04/23 17:23:58;;;;;;;;;;;;;;;15.31;100.00;94597.34;10574933;27;2960;-73
2023/04/23 17:29:00;;;;;;;;;;;;;;;15.14;100.00;94590.97;10574639;27;2134;-73
2023/04/23 17:34:03;;;;;;;;;;;;;;;15.09;100.00;94590.38;10569140;27;2055;-72
2023/04/23 17:39:06;;;;;;;;;;;;;;;15.01;100.00;94594.69;10568034;27;2940;-72
2023/04/23 17:44:08;;;;;;;;;;;;;;;14.92;100.00;94607.50;10571310;27;2840;-72
2023/04/23 17:49:11;;;;;;;;;;;;;;;14.81;100.00;94611.72;10558133;28;3042;-70
2023/04/23 17:54:14;;;;;;;;;;;;;;;14.82;100.00;94597.88;10572442;27;2886;-73
2023/04/23 17:59:16;;;;;;;;;;;;;;;14.80;100.00;94596.59;10572160;27;2910;-73
2023/04/23 18:04:19;;;;;;;;;;;;;;;14.73;100.00;94596.34;10566742;27;2895;-72
2023/04/23 18:09:22;;;;;;;;;;;;;;;14.71;100.00;94595.88;10567751;27;2833;-72
2023/04/23 18:14:24;;;;;;;;;;;;;;;14.62;100.00;94600.53;10575521;27;2924;-74
2023/04/23 18:19:29;;;;;;;;;;;;;;;14.56;100.00;94600.72;10567628;27;2035;-73
2023/04/23 18:24:36;;;;;;;;;;;;;;;14.58;100.00;94605.81;10563460;28;2910;-77
2023/04/23 18:29:38;;;;;;;;;;;;;;;14.58;100.00;94597.72;10559197;28;2016;-75
2023/04/23 18:34:42;;;;;;;;;;;;;;;14.52;100.00;94594.41;10561681;28;2891;-76
2023/04/23 18:39:44;;;;;;;;;;;;;;;14.41;100.00;94576.94;10560014;28;2106;-73
2023/04/23 18:44:47;;;;;;;;;;;;;;;14.42;100.00;94589.31;10543368;28;2860;-74
2023/04/23 18:49:51;;;;;;;;;;;;;;;14.49;100.00;94634.81;10555504;28;3017;-74
2023/04/23 18:54:54;;;;;;;;;;;;;;;14.54;100.00;94723.88;10557156;28;2961;-74
2023/04/23 18:59:56;;;;;;;;;;;;;;;13.58;100.00;94754.81;10559489;28;2090;-75
2023/04/23 19:04:59;;;;;;;;;;;;;;;12.00;100.00;94764.50;10562482;27;2907;-74
2023/04/23 19:10:02;;;;;;;;;;;;;;;10.77;100.00;94807.50;10563666;28;2935;-77
2023/04/23 19:15:05;;;;;;;;;;;;;;;10.38;100.00;94823.28;10546568;28;3026;-77
2023/04/23 19:20:10;;;;;;;;;;;;;;;10.27;100.00;94831.50;10563386;28;2065;-75
2023/04/23 19:25:13;;;;;;;;;;;;;;;10.17;100.00;94828.13;10565948;28;2884;-75
2023/04/23 19:30:16;;;;;;;;;;;;;;;10.10;100.00;94825.03;10572261;28;2879;-77
2023/04/23 19:35:19;;;;;;;;;;;;;;;10.06;100.00;94826.72;10572427;27;3083;-76
2023/04/23 19:40:22;;;;;;;;;;;;;;;10.00;100.00;94842.13;10569374;27;1975;-74
2023/04/23 19:45:28;;;;;;;;;;;;;;;10.07;100.00;94842.53;10568264;27;1995;-75
2023/04/23 19:50:31;;;;;;;;;;;;;;;10.02;100.00;94846.09;10573164;28;2879;-75
2023/04/23 19:55:33;;;;;;;;;;;;;;;10.10;100.00;94851.88;10570001;28;2876;-76
2023/04/23 20:00:38;;;;;;;;;;;;;;;10.37;100.00;94851.22;10574482;27;2884;-74
2023/04/23 20:05:45;;;;;;;;;;;;;;;10.35;100.00;94854.19;10564758;28;1995;-77
2023/04/23 20:10:47;;;;;;;;;;;;;;;10.55;100.00;94861.09;10568510;28;2907;-76
2023/04/23 20:15:52;;;;;;;;;;;;;;;10.55;100.00;94861.09;10559372;27;2883;-77
2023/04/23 20:20:55;;;;;;;;;;;;;;;10.57;100.00;94858.94;10564519;27;2859;-75
2023/04/23 20:25:58;;;;;;;;;;;;;;;10.38;100.00;94847.44;10563180;28;2925;-75
2023/04/23 20:31:02;;;;;;;;;;;;;;;10.34;100.00;94846.44;10564115;28;2118;-78
2023/04/23 20:36:05;;;;;;;;;;;;;;;10.24;100.00;94834.78;10568418;27;2817;-78
2023/04/23 20:41:08;;;;;;;;;;;;;;;10.15;100.00;94836.50;10566085;28;2874;-77
2023/04/23 20:46:12;;;;;;;;;;;;;;;10.13;100.00;94849.44;10568681;28;2890;-77
2023/04/23 20:51:15;;;;;;;;;;;;;;;10.19;100.00;94861.69;10566533;28;2093;-76
2023/04/23 20:56:18;;;;;;;;;;;;;;;10.26;100.00;94864.81;10550366;27;2843;-75
2023/04/23 21:01:20;;;;;;;;;;;;;;;10.27;100.00;94868.31;10570182;27;3220;-74
2023/04/23 21:06:24;;;;;;;;;;;;;;;10.34;100.00;94859.88;10567930;28;2858;-73
2023/04/23 21:11:27;;;;;;;;;;;;;;;10.43;100.00;94856.22;10562959;27;2842;-72
2023/04/23 21:16:29;;;;;;;;;;;;;;;10.37;100.00;94845.84;10565322;27;2980;-74
2023/04/23 21:21:32;;;;;;;;;;;;;;;10.36;100.00;94852.31;10549362;28;2898;-74
2023/04/23 21:26:34;;;;;;;;;;;;;;;10.35;100.00;94872.19;10558983;28;2866;-74
2023/04/23 21:31:37;;;;;;;;;;;;;;;10.34;100.00;94857.19;10570695;27;2918;-73
2023/04/23 21:36:43;;;;;;;;;;;;;;;10.32;100.00;94856.69;10565364;27;2803;-74
2023/04/23 21:41:46;;;;;;;;;;;;;;;10.28;100.00;94859.94;10565052;28;3253;-75
2023/04/23 21:46:49;;;;;;;;;;;;;;;10.30;100.00;94862.31;10565234;28;2070;-74
2023/04/23 21:51:53;;;;;;;;;;;;;;;10.32;100.00;94862.06;10566263;28;2938;-74
2023/04/23 21:56:56;;;;;;;;;;;;;;;10.33;100.00;94869.03;10560724;28;2959;-75
2023/04/23 22:01:59;;;;;;;;;;;;;;;10.26;100.00;94856.75;10566672;28;2966;-77
2023/04/23 22:07:03;;;;;;;;;;;;;;;10.29;100.00;94856.16;10567982;28;2046;-74
2023/04/23 22:12:07;;;;;;;;;;;;;;;10.24;100.00;94853.59;10569226;27;2118;-73
2023/04/23 22:17:10;;;;;;;;;;;;;;;10.24;100.00;94850.91;10561858;28;3066;-75
2023/04/23 22:22:13;;;;;;;;;;;;;;;10.24;100.00;94855.44;10562461;28;2923;-74
2023/04/23 22:27:15;;;;;;;;;;;;;;;10.24;100.00;94858.97;10563508;28;2899;-74
2023/04/23 22:32:18;;;;;;;;;;;;;;;10.29;100.00;94861.53;10564882;28;2146;-75
2023/04/23 22:37:20;;;;;;;;;;;;;;;10.28;100.00;94859.94;10566340;27;2887;-74
2023/04/23 22:42:23;;;;;;;;;;;;;;;10.28;100.00;94865.31;10563727;27;2966;-73
2023/04/23 22:47:26;;;;;;;;;;;;;;;10.29;100.00;94850.78;10566170;28;2892;-75
2023/04/23 22:52:28;;;;;;;;;;;;;;;10.25;100.00;94857.84;10571753;27;2887;-74
2023/04/23 22:57:31;;;;;;;;;;;;;;;10.21;100.00;94851.44;10572101;27;2816;-75
2023/04/23 23:02:33;;;;;;;;;;;;;;;10.18;100.00;94848.53;10560087;28;2114;-76
2023/04/23 23:07:36;;;;;;;;;;;;;;;10.12;100.00;94853.22;10555031;28;3210;-75
2023/04/23 23:12:39;;;;;;;;;;;;;;;10.07;100.00;94850.59;10561408;28;2978;-73
2023/04/23 23:17:42;;;;;;;;;;;;;;;9.98;100.00;94845.06;10565982;28;2110;-74
2023/04/23 23:22:45;;;;;;;;;;;;;;;9.80;100.00;94839.72;10562076;28;2842;-75
2023/04/23 23:27:47;;;;;;;;;;;;;;;9.70;100.00;94844.16;10558373;28;2908;-74
2023/04/23 23:32:50;;;;;;;;;;;;;;;9.65;100.00;94841.53;10572790;28;2041;-74
2023/04/23 23:37:52;;;;;;;;;;;;;;;9.60;100.00;94849.66;10561522;28;2841;-73
2023/04/23 23:42:55;;;;;;;;;;;;;;;9.48;100.00;94830.53;10559354;28;2055;-73
2023/04/23 23:47:58;;;;;;;;;;;;;;;9.43;100.00;94827.91;10560640;28;2940;-74
2023/04/23 23:53:00;;;;;;;;;;;;;;;9.46;100.00;94821.97;10564811;28;2034;-73
2023/04/23 23:58:03;;;;;;;;;;;;;;;9.36;100.00;94814.06;10563560;28;2916;-75
